Ecokeeper — SVTY — position and weather

sailwx.info

Track history (hours):
 
Tides and Currents Weather Stations Pressure Air Temp Water Temp Dewpoint Dewpoint Depression Visibility Wind Speed Wind Dir Waves Ship Positions

Ecokeeper

Last reported at 2015-Jan-30 17:33 UTC. Time now 2015-Feb-02 01:45 UTC.
Position N 37°57' E 023°34'.

Length 90 m; draft 6.7 m.

Type: Tanker. MMSI: 240689000.

Date/timePositionNaut miles runAvg speedWind from/ knotsBaromVisibWave heightAir tempDewpointWater temp
2015-Jan-30 17:33N 37°57' E 023°34'3 2.8
2015-Jan-30 16:34N 37°54' E 023°33'3 3.2
2015-Jan-30 15:34N 37°52' E 023°30'0 0.2
2015-Jan-30 14:34N 37°52' E 023°30'0 0.0
2015-Jan-30 13:33N 37°52' E 023°30'0 0.0
2015-Jan-30 12:34N 37°52' E 023°30'0 0.0
2015-Jan-30 11:34N 37°52' E 023°30'0 0.0
2015-Jan-30 10:34N 37°52' E 023°30'0 0.0
2015-Jan-30 09:33N 37°52' E 023°30'0 0.1
2015-Jan-30 08:33N 37°52' E 023°30'3 3.1
2015-Jan-30 07:34N 37°54' E 023°33'7 7.1
2015-Jan-30 06:33N 38°01' E 023°35'1 0.7
2015-Jan-30 05:34N 38°02' E 023°36'0 0.0
2015-Jan-30 04:33N 38°02' E 023°36'0 0.0
2015-Jan-30 03:34N 38°02' E 023°36'0 0.0
2015-Jan-30 02:33N 38°02' E 023°36'0 0.0
2015-Jan-30 01:34N 38°02' E 023°36'0 0.0
2015-Jan-30 00:34N 38°02' E 023°36'0 0.0
2015-Jan-29 23:34N 38°02' E 023°36'0 0.0
2015-Jan-29 22:34N 38°02' E 023°36'0 0.0
2015-Jan-29 21:34N 38°02' E 023°36'0 0.0
2015-Jan-29 20:34N 38°02' E 023°36'0 0.0
2015-Jan-29 19:33N 38°02' E 023°36'0 0.1
2015-Jan-29 18:34N 38°02' E 023°36'0 0.1
2015-Jan-29 17:33N 38°02' E 023°36'0 0.0
2015-Jan-29 16:31N 38°02' E 023°36'0 0.0
2015-Jan-29 15:34N 38°02' E 023°36'0 0.0
2015-Jan-29 14:34N 38°02' E 023°36'0 0.0
2015-Jan-29 13:33N 38°02' E 023°36'0 0.0
2015-Jan-29 12:33N 38°02' E 023°36'0 0.0
2015-Jan-29 11:34N 38°02' E 023°36'1 0.9
2015-Jan-29 10:34N 38°01' E 023°35'0 0.0
2015-Jan-29 09:33N 38°01' E 023°35'0 0.0
2015-Jan-29 08:33N 38°01' E 023°35'0 0.1
2015-Jan-29 07:25N 38°01' E 023°35'3 3.8
2015-Jan-29 06:33N 37°59' E 023°33'  
2015-Jan-25 12:30N 37°57' E 023°34'0 0.0
2015-Jan-25 10:20N 37°57' E 023°34'0 0.0
2015-Jan-25 06:23N 37°57' E 023°34'  
2015-Jan-22 13:33N 37°57' E 023°34'0 0.1
2015-Jan-22 12:33N 37°57' E 023°34'  
Track history (hours):
 
Tides and Currents Weather Stations Pressure Air Temp Water Temp Dewpoint Dewpoint Depression Visibility Wind Speed Wind Dir Waves Ship Positions

Ecokeeper

Last reported at 2015-Jan-30 17:33 UTC. Time now 2015-Feb-02 01:45 UTC.
Position N 37°57' E 023°34'.

Length 90 m; draft 6.7 m.

Type: Tanker. MMSI: 240689000.

Date/timePositionNaut miles runAvg speedWind from/ knotsBaromVisibWave heightAir tempDewpointWater temp
2015-Jan-30 17:33N 37°57' E 023°34'3 2.8
2015-Jan-30 16:34N 37°54' E 023°33'3 3.2
2015-Jan-30 15:34N 37°52' E 023°30'0 0.2
2015-Jan-30 14:34N 37°52' E 023°30'0 0.0
2015-Jan-30 13:33N 37°52' E 023°30'0 0.0
2015-Jan-30 12:34N 37°52' E 023°30'0 0.0
2015-Jan-30 11:34N 37°52' E 023°30'0 0.0
2015-Jan-30 10:34N 37°52' E 023°30'0 0.0
2015-Jan-30 09:33N 37°52' E 023°30'0 0.1
2015-Jan-30 08:33N 37°52' E 023°30'3 3.1
2015-Jan-30 07:34N 37°54' E 023°33'7 7.1
2015-Jan-30 06:33N 38°01' E 023°35'1 0.7
2015-Jan-30 05:34N 38°02' E 023°36'0 0.0
2015-Jan-30 04:33N 38°02' E 023°36'0 0.0
2015-Jan-30 03:34N 38°02' E 023°36'0 0.0
2015-Jan-30 02:33N 38°02' E 023°36'0 0.0
2015-Jan-30 01:34N 38°02' E 023°36'0 0.0
2015-Jan-30 00:34N 38°02' E 023°36'0 0.0
2015-Jan-29 23:34N 38°02' E 023°36'0 0.0
2015-Jan-29 22:34N 38°02' E 023°36'0 0.0
2015-Jan-29 21:34N 38°02' E 023°36'0 0.0
2015-Jan-29 20:34N 38°02' E 023°36'0 0.0
2015-Jan-29 19:33N 38°02' E 023°36'0 0.1
2015-Jan-29 18:34N 38°02' E 023°36'0 0.1
2015-Jan-29 17:33N 38°02' E 023°36'0 0.0
2015-Jan-29 16:31N 38°02' E 023°36'0 0.0
2015-Jan-29 15:34N 38°02' E 023°36'0 0.0
2015-Jan-29 14:34N 38°02' E 023°36'0 0.0
2015-Jan-29 13:33N 38°02' E 023°36'0 0.0
2015-Jan-29 12:33N 38°02' E 023°36'0 0.0
2015-Jan-29 11:34N 38°02' E 023°36'1 0.9
2015-Jan-29 10:34N 38°01' E 023°35'0 0.0
2015-Jan-29 09:33N 38°01' E 023°35'0 0.0
2015-Jan-29 08:33N 38°01' E 023°35'0 0.1
2015-Jan-29 07:25N 38°01' E 023°35'3 3.8
2015-Jan-29 06:33N 37°59' E 023°33'  
2015-Jan-25 12:30N 37°57' E 023°34'0 0.0
2015-Jan-25 10:20N 37°57' E 023°34'0 0.0
2015-Jan-25 06:23N 37°57' E 023°34'  
2015-Jan-22 13:33N 37°57' E 023°34'0 0.1
2015-Jan-22 12:33N 37°57' E 023°34'  

Dump ship's entire track history